sensor_id;sensor_type;location;lat;lon;timestamp;temperature;humidity
9816;DHT22;4947;44.526;11.360;2023-02-28T00:00:06;4.60;99.90
9816;DHT22;4947;44.526;11.360;2023-02-28T00:02:36;4.60;99.90
9816;DHT22;4947;44.526;11.360;2023-02-28T00:05:06;4.60;99.90
9816;DHT22;4947;44.526;11.360;2023-02-28T00:07:34;4.50;99.90
9816;DHT22;4947;44.526;11.360;2023-02-28T00:10:03;4.60;99.90
9816;DHT22;4947;44.526;11.360;2023-02-28T00:12:32;4.60;99.90
9816;DHT22;4947;44.526;11.360;2023-02-28T00:14:59;4.50;99.90
9816;DHT22;4947;44.526;11.360;2023-02-28T00:17:28;4.50;99.90
9816;DHT22;4947;44.526;11.360;2023-02-28T00:19:56;4.40;99.90
9816;DHT22;4947;44.526;11.360;2023-02-28T00:22:27;4.40;99.90
9816;DHT22;4947;44.526;11.360;2023-02-28T00:24:55;4.30;99.90
9816;DHT22;4947;44.526;11.360;2023-02-28T00:27:23;4.30;99.90
9816;DHT22;4947;44.526;11.360;2023-02-28T00:29:50;4.30;99.90
9816;DHT22;4947;44.526;11.360;2023-02-28T00:32:19;4.30;99.90
9816;DHT22;4947;44.526;11.360;2023-02-28T00:34:49;4.40;99.90
9816;DHT22;4947;44.526;11.360;2023-02-28T00:37:17;4.40;99.90
9816;DHT22;4947;44.526;11.360;2023-02-28T00:39:44;4.40;99.90
9816;DHT22;4947;44.526;11.360;2023-02-28T00:42:12;4.40;99.90
9816;DHT22;4947;44.526;11.360;2023-02-28T00:44:40;4.40;99.90
9816;DHT22;4947;44.526;11.360;2023-02-28T00:47:07;4.40;99.90
9816;DHT22;4947;44.526;11.360;2023-02-28T00:49:35;4.40;99.90
9816;DHT22;4947;44.526;11.360;2023-02-28T00:52:05;4.40;99.90
9816;DHT22;4947;44.526;11.360;2023-02-28T00:54:33;4.40;99.90
9816;DHT22;4947;44.526;11.360;2023-02-28T00:57:01;4.40;99.90
9816;DHT22;4947;44.526;11.360;2023-02-28T00:59:28;4.40;99.90
9816;DHT22;4947;44.526;11.360;2023-02-28T01:01:56;4.40;99.90
9816;DHT22;4947;44.526;11.360;2023-02-28T01:04:24;4.30;99.90
9816;DHT22;4947;44.526;11.360;2023-02-28T01:06:52;4.40;99.90
9816;DHT22;4947;44.526;11.360;2023-02-28T01:09:21;4.40;99.90
9816;DHT22;4947;44.526;11.360;2023-02-28T01:11:49;4.40;99.90
9816;DHT22;4947;44.526;11.360;2023-02-28T01:14:17;4.40;99.90
9816;DHT22;4947;44.526;11.360;2023-02-28T01:16:46;4.30;99.90
9816;DHT22;4947;44.526;11.360;2023-02-28T01:19:13;4.40;99.90
9816;DHT22;4947;44.526;11.360;2023-02-28T01:21:41;4.40;99.90
9816;DHT22;4947;44.526;11.360;2023-02-28T01:24:09;4.40;99.90
9816;DHT22;4947;44.526;11.360;2023-02-28T01:26:38;4.40;99.90
9816;DHT22;4947;44.526;11.360;2023-02-28T01:29:05;4.40;99.90
9816;DHT22;4947;44.526;11.360;2023-02-28T01:31:32;4.40;99.90
9816;DHT22;4947;44.526;11.360;2023-02-28T01:34:01;4.40;99.90
9816;DHT22;4947;44.526;11.360;2023-02-28T01:36:29;4.30;99.90
9816;DHT22;4947;44.526;11.360;2023-02-28T01:38:57;4.30;99.90
9816;DHT22;4947;44.526;11.360;2023-02-28T01:41:26;4.20;99.90
9816;DHT22;4947;44.526;11.360;2023-02-28T01:47:14;4.20;99.90
9816;DHT22;4947;44.526;11.360;2023-02-28T01:49:42;4.20;99.90
9816;DHT22;4947;44.526;11.360;2023-02-28T01:52:11;4.20;99.90
9816;DHT22;4947;44.526;11.360;2023-02-28T01:54:40;4.20;99.90
9816;DHT22;4947;44.526;11.360;2023-02-28T01:57:12;4.20;99.90
9816;DHT22;4947;44.526;11.360;2023-02-28T01:59:49;4.20;99.90
9816;DHT22;4947;44.526;11.360;2023-02-28T02:02:20;4.10;99.90
9816;DHT22;4947;44.526;11.360;2023-02-28T02:04:53;4.10;99.90
9816;DHT22;4947;44.526;11.360;2023-02-28T02:07:29;4.10;99.90
9816;DHT22;4947;44.526;11.360;2023-02-28T02:10:02;4.10;99.90
9816;DHT22;4947;44.526;11.360;2023-02-28T02:12:42;4.10;99.90
9816;DHT22;4947;44.526;11.360;2023-02-28T02:15:18;4.10;99.90
9816;DHT22;4947;44.526;11.360;2023-02-28T02:17:56;4.20;99.90
9816;DHT22;4947;44.526;11.360;2023-02-28T02:20:46;4.10;99.90
9816;DHT22;4947;44.526;11.360;2023-02-28T02:29:22;4.10;99.90
9816;DHT22;4947;44.526;11.360;2023-02-28T02:35:04;4.10;99.90
9816;DHT22;4947;44.526;11.360;2023-02-28T02:37:40;4.00;99.90
9816;DHT22;4947;44.526;11.360;2023-02-28T02:40:15;4.00;99.90
9816;DHT22;4947;44.526;11.360;2023-02-28T02:42:49;4.00;99.90
9816;DHT22;4947;44.526;11.360;2023-02-28T02:45:25;4.00;99.90
9816;DHT22;4947;44.526;11.360;2023-02-28T02:47:57;4.00;99.90
9816;DHT22;4947;44.526;11.360;2023-02-28T02:50:33;4.00;99.90
9816;DHT22;4947;44.526;11.360;2023-02-28T02:53:04;4.00;99.90
9816;DHT22;4947;44.526;11.360;2023-02-28T02:55:36;4.00;99.90
9816;DHT22;4947;44.526;11.360;2023-02-28T02:58:09;4.10;99.90
9816;DHT22;4947;44.526;11.360;2023-02-28T03:00:41;4.10;99.90
9816;DHT22;4947;44.526;11.360;2023-02-28T03:03:10;4.10;99.90
9816;DHT22;4947;44.526;11.360;2023-02-28T03:05:44;4.00;99.90
9816;DHT22;4947;44.526;11.360;2023-02-28T03:08:13;4.00;99.90
9816;DHT22;4947;44.526;11.360;2023-02-28T03:10:42;4.00;99.90
9816;DHT22;4947;44.526;11.360;2023-02-28T03:16:32;4.00;99.90
9816;DHT22;4947;44.526;11.360;2023-02-28T03:19:12;4.00;99.90
9816;DHT22;4947;44.526;11.360;2023-02-28T03:21:55;4.00;99.90
9816;DHT22;4947;44.526;11.360;2023-02-28T03:24:29;4.00;99.90
9816;DHT22;4947;44.526;11.360;2023-02-28T03:27:06;4.10;99.90
9816;DHT22;4947;44.526;11.360;2023-02-28T03:29:39;4.10;99.90
9816;DHT22;4947;44.526;11.360;2023-02-28T03:32:17;4.10;99.90
9816;DHT22;4947;44.526;11.360;2023-02-28T03:34:50;4.10;99.90
9816;DHT22;4947;44.526;11.360;2023-02-28T03:37:25;4.10;99.90
9816;DHT22;4947;44.526;11.360;2023-02-28T03:39:57;4.10;99.90
9816;DHT22;4947;44.526;11.360;2023-02-28T03:42:28;4.10;99.90
9816;DHT22;4947;44.526;11.360;2023-02-28T03:44:59;4.10;99.90
9816;DHT22;4947;44.526;11.360;2023-02-28T03:47:31;4.10;99.90
9816;DHT22;4947;44.526;11.360;2023-02-28T03:50:03;4.20;99.90
9816;DHT22;4947;44.526;11.360;2023-02-28T03:52:39;4.10;99.90
9816;DHT22;4947;44.526;11.360;2023-02-28T03:55:10;4.10;99.90
9816;DHT22;4947;44.526;11.360;2023-02-28T03:57:45;4.10;99.90
9816;DHT22;4947;44.526;11.360;2023-02-28T04:00:21;4.10;99.90
9816;DHT22;4947;44.526;11.360;2023-02-28T04:02:54;4.10;99.90
9816;DHT22;4947;44.526;11.360;2023-02-28T04:05:22;4.10;99.90
9816;DHT22;4947;44.526;11.360;2023-02-28T04:07:52;4.00;99.90
9816;DHT22;4947;44.526;11.360;2023-02-28T04:10:20;4.00;99.90
9816;DHT22;4947;44.526;11.360;2023-02-28T04:12:48;4.00;99.90
9816;DHT22;4947;44.526;11.360;2023-02-28T04:15:16;4.00;99.90
9816;DHT22;4947;44.526;11.360;2023-02-28T04:17:48;4.00;99.90
9816;DHT22;4947;44.526;11.360;2023-02-28T04:20:16;4.00;99.90
9816;DHT22;4947;44.526;11.360;2023-02-28T04:22:44;4.00;99.90
9816;DHT22;4947;44.526;11.360;2023-02-28T04:25:16;4.00;99.90
9816;DHT22;4947;44.526;11.360;2023-02-28T04:27:43;4.00;99.90
9816;DHT22;4947;44.526;11.360;2023-02-28T04:30:11;4.00;99.90
9816;DHT22;4947;44.526;11.360;2023-02-28T04:32:39;4.00;99.90
9816;DHT22;4947;44.526;11.360;2023-02-28T04:35:08;4.00;99.90
9816;DHT22;4947;44.526;11.360;2023-02-28T04:37:36;4.00;99.90
9816;DHT22;4947;44.526;11.360;2023-02-28T04:40:05;3.90;99.90
9816;DHT22;4947;44.526;11.360;2023-02-28T04:42:34;3.90;99.90
9816;DHT22;4947;44.526;11.360;2023-02-28T04:45:02;3.90;99.90
9816;DHT22;4947;44.526;11.360;2023-02-28T04:47:31;3.90;99.90
9816;DHT22;4947;44.526;11.360;2023-02-28T04:49:59;3.90;99.90
9816;DHT22;4947;44.526;11.360;2023-02-28T04:52:27;3.80;99.90
9816;DHT22;4947;44.526;11.360;2023-02-28T04:54:55;3.80;99.90
9816;DHT22;4947;44.526;11.360;2023-02-28T04:57:22;3.80;99.90
9816;DHT22;4947;44.526;11.360;2023-02-28T04:59:52;3.90;99.90
9816;DHT22;4947;44.526;11.360;2023-02-28T05:02:20;3.80;99.90
9816;DHT22;4947;44.526;11.360;2023-02-28T05:04:47;3.80;99.90
9816;DHT22;4947;44.526;11.360;2023-02-28T05:07:15;3.80;99.90
9816;DHT22;4947;44.526;11.360;2023-02-28T05:09:42;3.80;99.90
9816;DHT22;4947;44.526;11.360;2023-02-28T05:12:10;3.80;99.90
9816;DHT22;4947;44.526;11.360;2023-02-28T05:14:37;3.90;99.90
9816;DHT22;4947;44.526;11.360;2023-02-28T05:17:08;3.90;99.90
9816;DHT22;4947;44.526;11.360;2023-02-28T05:19:35;3.90;99.90
9816;DHT22;4947;44.526;11.360;2023-02-28T05:22:04;3.90;99.90
9816;DHT22;4947;44.526;11.360;2023-02-28T05:24:32;3.90;99.90
9816;DHT22;4947;44.526;11.360;2023-02-28T05:27:00;4.00;99.90
9816;DHT22;4947;44.526;11.360;2023-02-28T05:29:28;4.00;99.90
9816;DHT22;4947;44.526;11.360;2023-02-28T05:31:55;4.00;99.90
9816;DHT22;4947;44.526;11.360;2023-02-28T05:34:24;4.00;99.90
9816;DHT22;4947;44.526;11.360;2023-02-28T05:36:52;4.00;99.90
9816;DHT22;4947;44.526;11.360;2023-02-28T05:39:20;3.90;99.90
9816;DHT22;4947;44.526;11.360;2023-02-28T05:41:48;4.00;99.90
9816;DHT22;4947;44.526;11.360;2023-02-28T05:44:16;3.90;99.90
9816;DHT22;4947;44.526;11.360;2023-02-28T05:46:43;3.90;99.90
9816;DHT22;4947;44.526;11.360;2023-02-28T05:49:12;3.90;99.90
9816;DHT22;4947;44.526;11.360;2023-02-28T05:51:42;3.90;99.90
9816;DHT22;4947;44.526;11.360;2023-02-28T05:54:09;3.80;99.90
9816;DHT22;4947;44.526;11.360;2023-02-28T05:56:37;3.80;99.90
9816;DHT22;4947;44.526;11.360;2023-02-28T05:59:05;3.70;99.90
9816;DHT22;4947;44.526;11.360;2023-02-28T06:01:35;3.80;99.90
9816;DHT22;4947;44.526;11.360;2023-02-28T06:04:05;3.80;99.90
9816;DHT22;4947;44.526;11.360;2023-02-28T06:06:33;3.80;99.90
9816;DHT22;4947;44.526;11.360;2023-02-28T06:09:03;3.80;99.90
9816;DHT22;4947;44.526;11.360;2023-02-28T06:11:32;3.80;99.90
9816;DHT22;4947;44.526;11.360;2023-02-28T06:14:04;3.70;99.90
9816;DHT22;4947;44.526;11.360;2023-02-28T06:16:34;3.70;99.90
9816;DHT22;4947;44.526;11.360;2023-02-28T06:19:03;3.70;99.90
9816;DHT22;4947;44.526;11.360;2023-02-28T06:21:32;3.70;99.90
9816;DHT22;4947;44.526;11.360;2023-02-28T06:24:02;3.60;99.90
9816;DHT22;4947;44.526;11.360;2023-02-28T06:26:30;3.60;99.90
9816;DHT22;4947;44.526;11.360;2023-02-28T06:28:58;3.60;99.90
9816;DHT22;4947;44.526;11.360;2023-02-28T06:31:26;3.60;99.90
9816;DHT22;4947;44.526;11.360;2023-02-28T06:33:55;3.60;99.90
9816;DHT22;4947;44.526;11.360;2023-02-28T06:36:23;3.60;99.90
9816;DHT22;4947;44.526;11.360;2023-02-28T06:38:50;3.60;99.90
9816;DHT22;4947;44.526;11.360;2023-02-28T06:41:22;3.60;99.90
9816;DHT22;4947;44.526;11.360;2023-02-28T06:43:51;3.60;99.90
9816;DHT22;4947;44.526;11.360;2023-02-28T06:46:19;3.60;99.90
9816;DHT22;4947;44.526;11.360;2023-02-28T06:48:50;3.70;99.90
9816;DHT22;4947;44.526;11.360;2023-02-28T06:51:19;3.60;99.90
9816;DHT22;4947;44.526;11.360;2023-02-28T06:53:47;3.70;99.90
9816;DHT22;4947;44.526;11.360;2023-02-28T06:56:16;3.70;99.90
9816;DHT22;4947;44.526;11.360;2023-02-28T06:58:48;3.70;99.90
9816;DHT22;4947;44.526;11.360;2023-02-28T07:01:15;3.70;99.90
9816;DHT22;4947;44.526;11.360;2023-02-28T07:03:44;3.70;99.90
9816;DHT22;4947;44.526;11.360;2023-02-28T07:06:15;3.70;99.90
9816;DHT22;4947;44.526;11.360;2023-02-28T07:08:43;3.70;99.90
9816;DHT22;4947;44.526;11.360;2023-02-28T07:11:11;3.70;99.90
9816;DHT22;4947;44.526;11.360;2023-02-28T07:13:39;3.70;99.90
9816;DHT22;4947;44.526;11.360;2023-02-28T07:16:10;3.70;99.90
9816;DHT22;4947;44.526;11.360;2023-02-28T07:18:38;3.70;99.90
9816;DHT22;4947;44.526;11.360;2023-02-28T07:21:08;3.70;99.90
9816;DHT22;4947;44.526;11.360;2023-02-28T07:23:41;3.70;99.90
9816;DHT22;4947;44.526;11.360;2023-02-28T07:26:12;3.70;99.90
9816;DHT22;4947;44.526;11.360;2023-02-28T07:28:40;3.70;99.90
9816;DHT22;4947;44.526;11.360;2023-02-28T07:31:11;3.80;99.90
9816;DHT22;4947;44.526;11.360;2023-02-28T07:33:39;3.90;99.90
9816;DHT22;4947;44.526;11.360;2023-02-28T07:36:10;4.00;99.90
9816;DHT22;4947;44.526;11.360;2023-02-28T07:38:41;4.10;99.90
9816;DHT22;4947;44.526;11.360;2023-02-28T07:41:10;4.20;99.90
9816;DHT22;4947;44.526;11.360;2023-02-28T07:43:37;4.20;99.90
9816;DHT22;4947;44.526;11.360;2023-02-28T07:46:07;4.30;99.90
9816;DHT22;4947;44.526;11.360;2023-02-28T07:48:39;4.30;99.90
9816;DHT22;4947;44.526;11.360;2023-02-28T07:51:07;4.20;99.90
9816;DHT22;4947;44.526;11.360;2023-02-28T07:53:34;4.30;99.90
9816;DHT22;4947;44.526;11.360;2023-02-28T07:56:03;4.40;99.90
9816;DHT22;4947;44.526;11.360;2023-02-28T07:58:31;4.50;99.90
9816;DHT22;4947;44.526;11.360;2023-02-28T08:01:05;4.60;99.90
9816;DHT22;4947;44.526;11.360;2023-02-28T08:03:33;4.60;99.90
9816;DHT22;4947;44.526;11.360;2023-02-28T08:06:05;4.70;99.90
9816;DHT22;4947;44.526;11.360;2023-02-28T08:08:33;4.70;99.90
9816;DHT22;4947;44.526;11.360;2023-02-28T08:11:02;4.70;99.90
9816;DHT22;4947;44.526;11.360;2023-02-28T08:13:30;4.70;99.90
9816;DHT22;4947;44.526;11.360;2023-02-28T08:15:58;4.70;99.90
9816;DHT22;4947;44.526;11.360;2023-02-28T08:18:28;4.80;99.90
9816;DHT22;4947;44.526;11.360;2023-02-28T08:20:55;4.90;99.90
9816;DHT22;4947;44.526;11.360;2023-02-28T08:23:25;4.90;99.90
9816;DHT22;4947;44.526;11.360;2023-02-28T08:25:56;4.90;99.90
9816;DHT22;4947;44.526;11.360;2023-02-28T08:28:23;5.00;99.90
9816;DHT22;4947;44.526;11.360;2023-02-28T08:30:52;5.00;99.90
9816;DHT22;4947;44.526;11.360;2023-02-28T08:33:19;5.10;99.90
9816;DHT22;4947;44.526;11.360;2023-02-28T08:35:46;5.10;99.90
9816;DHT22;4947;44.526;11.360;2023-02-28T08:38:14;5.20;99.90
9816;DHT22;4947;44.526;11.360;2023-02-28T08:40:43;5.40;99.90
9816;DHT22;4947;44.526;11.360;2023-02-28T08:43:11;5.50;99.90
9816;DHT22;4947;44.526;11.360;2023-02-28T08:45:38;5.40;99.90
9816;DHT22;4947;44.526;11.360;2023-02-28T08:48:06;5.40;99.90
9816;DHT22;4947;44.526;11.360;2023-02-28T08:50:34;5.30;99.90
9816;DHT22;4947;44.526;11.360;2023-02-28T08:53:02;5.30;99.90
9816;DHT22;4947;44.526;11.360;2023-02-28T08:55:29;5.30;99.90
9816;DHT22;4947;44.526;11.360;2023-02-28T08:57:58;5.30;99.90
9816;DHT22;4947;44.526;11.360;2023-02-28T09:00:29;5.20;99.90
9816;DHT22;4947;44.526;11.360;2023-02-28T09:02:57;5.30;99.90
9816;DHT22;4947;44.526;11.360;2023-02-28T09:05:24;5.40;99.90
9816;DHT22;4947;44.526;11.360;2023-02-28T09:07:52;5.50;99.90
9816;DHT22;4947;44.526;11.360;2023-02-28T09:10:20;5.70;99.90
9816;DHT22;4947;44.526;11.360;2023-02-28T09:12:47;5.70;99.90
9816;DHT22;4947;44.526;11.360;2023-02-28T09:15:17;5.70;99.90
9816;DHT22;4947;44.526;11.360;2023-02-28T09:17:45;5.80;99.90
9816;DHT22;4947;44.526;11.360;2023-02-28T09:20:13;5.80;99.90
9816;DHT22;4947;44.526;11.360;2023-02-28T09:22:40;6.00;99.90
9816;DHT22;4947;44.526;11.360;2023-02-28T09:25:08;6.10;99.90
9816;DHT22;4947;44.526;11.360;2023-02-28T09:27:39;6.10;99.90
9816;DHT22;4947;44.526;11.360;2023-02-28T09:30:08;6.30;99.90
9816;DHT22;4947;44.526;11.360;2023-02-28T09:32:37;6.40;99.90
9816;DHT22;4947;44.526;11.360;2023-02-28T09:35:05;6.50;99.90
9816;DHT22;4947;44.526;11.360;2023-02-28T09:37:38;6.70;99.90
9816;DHT22;4947;44.526;11.360;2023-02-28T09:40:07;6.80;99.90
9816;DHT22;4947;44.526;11.360;2023-02-28T09:42:35;6.80;99.90
9816;DHT22;4947;44.526;11.360;2023-02-28T09:45:13;6.70;99.90
9816;DHT22;4947;44.526;11.360;2023-02-28T09:47:46;6.70;99.90
9816;DHT22;4947;44.526;11.360;2023-02-28T09:50:21;6.90;99.90
9816;DHT22;4947;44.526;11.360;2023-02-28T09:52:50;7.00;99.90
9816;DHT22;4947;44.526;11.360;2023-02-28T09:55:22;6.90;99.90
9816;DHT22;4947;44.526;11.360;2023-02-28T09:57:50;6.90;99.90
9816;DHT22;4947;44.526;11.360;2023-02-28T10:00:22;6.80;99.90
9816;DHT22;4947;44.526;11.360;2023-02-28T10:06:02;6.90;99.90
9816;DHT22;4947;44.526;11.360;2023-02-28T10:08:36;6.90;99.90
9816;DHT22;4947;44.526;11.360;2023-02-28T10:11:12;7.00;99.90
9816;DHT22;4947;44.526;11.360;2023-02-28T10:13:49;7.00;99.90
9816;DHT22;4947;44.526;11.360;2023-02-28T10:16:23;6.90;99.90
9816;DHT22;4947;44.526;11.360;2023-02-28T10:18:57;6.70;99.90
9816;DHT22;4947;44.526;11.360;2023-02-28T10:21:29;6.90;99.90
9816;DHT22;4947;44.526;11.360;2023-02-28T10:24:03;7.00;99.90
9816;DHT22;4947;44.526;11.360;2023-02-28T10:26:32;7.00;99.90
9816;DHT22;4947;44.526;11.360;2023-02-28T10:29:01;6.90;99.90
9816;DHT22;4947;44.526;11.360;2023-02-28T10:31:29;6.90;99.90
9816;DHT22;4947;44.526;11.360;2023-02-28T10:33:59;7.00;99.90
9816;DHT22;4947;44.526;11.360;2023-02-28T10:36:27;6.80;99.90
9816;DHT22;4947;44.526;11.360;2023-02-28T10:38:55;6.80;99.90
9816;DHT22;4947;44.526;11.360;2023-02-28T10:41:28;6.80;99.90
9816;DHT22;4947;44.526;11.360;2023-02-28T10:44:14;7.10;99.90
9816;DHT22;4947;44.526;11.360;2023-02-28T10:46:42;7.30;99.90
9816;DHT22;4947;44.526;11.360;2023-02-28T10:49:20;7.40;99.90
9816;DHT22;4947;44.526;11.360;2023-02-28T10:51:50;7.20;99.90
9816;DHT22;4947;44.526;11.360;2023-02-28T10:54:22;7.20;99.90
9816;DHT22;4947;44.526;11.360;2023-02-28T10:57:08;7.30;99.90
9816;DHT22;4947;44.526;11.360;2023-02-28T10:59:42;7.10;99.90
9816;DHT22;4947;44.526;11.360;2023-02-28T11:02:31;7.00;99.90
9816;DHT22;4947;44.526;11.360;2023-02-28T11:05:01;7.10;99.90
9816;DHT22;4947;44.526;11.360;2023-02-28T11:07:29;7.10;99.90
9816;DHT22;4947;44.526;11.360;2023-02-28T11:09:57;7.00;99.90
9816;DHT22;4947;44.526;11.360;2023-02-28T11:12:28;7.00;99.90
9816;DHT22;4947;44.526;11.360;2023-02-28T11:14:59;7.00;99.90
9816;DHT22;4947;44.526;11.360;2023-02-28T11:17:30;7.00;99.90
9816;DHT22;4947;44.526;11.360;2023-02-28T11:20:03;7.10;99.90
9816;DHT22;4947;44.526;11.360;2023-02-28T11:22:36;7.10;99.90
9816;DHT22;4947;44.526;11.360;2023-02-28T11:25:16;7.20;99.90
9816;DHT22;4947;44.526;11.360;2023-02-28T11:27:47;7.20;99.90
9816;DHT22;4947;44.526;11.360;2023-02-28T11:30:27;7.20;99.90
9816;DHT22;4947;44.526;11.360;2023-02-28T11:32:55;7.10;99.90
9816;DHT22;4947;44.526;11.360;2023-02-28T11:35:28;7.20;99.90
9816;DHT22;4947;44.526;11.360;2023-02-28T11:37:57;7.40;99.90
9816;DHT22;4947;44.526;11.360;2023-02-28T11:40:31;7.30;99.90
9816;DHT22;4947;44.526;11.360;2023-02-28T11:43:20;7.40;99.90
9816;DHT22;4947;44.526;11.360;2023-02-28T11:46:01;7.60;99.90
9816;DHT22;4947;44.526;11.360;2023-02-28T11:48:37;7.50;99.90
9816;DHT22;4947;44.526;11.360;2023-02-28T11:51:15;7.50;99.90
9816;DHT22;4947;44.526;11.360;2023-02-28T11:54:02;7.20;99.90
9816;DHT22;4947;44.526;11.360;2023-02-28T11:56:37;7.00;99.90
9816;DHT22;4947;44.526;11.360;2023-02-28T11:59:32;7.00;99.90
9816;DHT22;4947;44.526;11.360;2023-02-28T12:02:19;7.00;99.90
9816;DHT22;4947;44.526;11.360;2023-02-28T12:04:53;7.00;99.90
9816;DHT22;4947;44.526;11.360;2023-02-28T12:07:33;7.10;99.90
9816;DHT22;4947;44.526;11.360;2023-02-28T12:10:15;7.30;99.90
9816;DHT22;4947;44.526;11.360;2023-02-28T12:12:53;7.20;99.90
9816;DHT22;4947;44.526;11.360;2023-02-28T12:15:36;7.30;99.90
9816;DHT22;4947;44.526;11.360;2023-02-28T12:18:17;7.10;99.90
9816;DHT22;4947;44.526;11.360;2023-02-28T12:20:54;7.10;99.90
9816;DHT22;4947;44.526;11.360;2023-02-28T12:23:55;7.10;99.90
9816;DHT22;4947;44.526;11.360;2023-02-28T12:26:32;7.10;99.90
9816;DHT22;4947;44.526;11.360;2023-02-28T12:29:04;7.10;99.90
9816;DHT22;4947;44.526;11.360;2023-02-28T12:31:39;6.90;99.90
9816;DHT22;4947;44.526;11.360;2023-02-28T12:34:12;7.00;99.90
9816;DHT22;4947;44.526;11.360;2023-02-28T12:36:41;7.00;99.90
9816;DHT22;4947;44.526;11.360;2023-02-28T12:39:15;7.10;99.90
9816;DHT22;4947;44.526;11.360;2023-02-28T12:41:47;7.10;99.90
9816;DHT22;4947;44.526;11.360;2023-02-28T12:44:18;7.10;99.90
9816;DHT22;4947;44.526;11.360;2023-02-28T12:46:50;7.00;99.90
9816;DHT22;4947;44.526;11.360;2023-02-28T12:49:21;7.00;99.90
9816;DHT22;4947;44.526;11.360;2023-02-28T12:51:52;7.00;99.90
9816;DHT22;4947;44.526;11.360;2023-02-28T12:54:26;7.10;99.90
9816;DHT22;4947;44.526;11.360;2023-02-28T12:57:01;7.10;99.90
9816;DHT22;4947;44.526;11.360;2023-02-28T12:59:36;7.10;99.90
9816;DHT22;4947;44.526;11.360;2023-02-28T13:05:46;7.10;99.90
9816;DHT22;4947;44.526;11.360;2023-02-28T13:11:32;7.20;99.90
9816;DHT22;4947;44.526;11.360;2023-02-28T13:14:03;7.30;99.90
9816;DHT22;4947;44.526;11.360;2023-02-28T13:16:55;7.20;99.90
9816;DHT22;4947;44.526;11.360;2023-02-28T13:19:26;7.20;99.90
9816;DHT22;4947;44.526;11.360;2023-02-28T13:21:55;7.20;99.90
9816;DHT22;4947;44.526;11.360;2023-02-28T13:24:41;7.20;99.90
9816;DHT22;4947;44.526;11.360;2023-02-28T13:27:38;7.20;99.90
9816;DHT22;4947;44.526;11.360;2023-02-28T13:33:25;7.10;99.90
9816;DHT22;4947;44.526;11.360;2023-02-28T13:36:25;7.20;99.90
9816;DHT22;4947;44.526;11.360;2023-02-28T13:38:58;7.10;99.90
9816;DHT22;4947;44.526;11.360;2023-02-28T13:41:47;7.10;99.90
9816;DHT22;4947;44.526;11.360;2023-02-28T13:44:18;7.10;99.90
9816;DHT22;4947;44.526;11.360;2023-02-28T13:47:20;7.10;99.90
9816;DHT22;4947;44.526;11.360;2023-02-28T13:49:50;7.10;99.90
9816;DHT22;4947;44.526;11.360;2023-02-28T13:52:23;7.20;99.90
9816;DHT22;4947;44.526;11.360;2023-02-28T13:55:14;7.20;99.90
9816;DHT22;4947;44.526;11.360;2023-02-28T13:57:58;7.20;99.90
9816;DHT22;4947;44.526;11.360;2023-02-28T14:00:40;7.20;99.90
9816;DHT22;4947;44.526;11.360;2023-02-28T14:03:22;7.20;99.90
9816;DHT22;4947;44.526;11.360;2023-02-28T14:06:08;7.30;99.90
9816;DHT22;4947;44.526;11.360;2023-02-28T14:08:37;7.30;99.90
9816;DHT22;4947;44.526;11.360;2023-02-28T14:11:25;7.30;99.90
9816;DHT22;4947;44.526;11.360;2023-02-28T14:13:53;7.30;99.90
9816;DHT22;4947;44.526;11.360;2023-02-28T14:16:24;7.30;99.90
9816;DHT22;4947;44.526;11.360;2023-02-28T14:18:57;7.20;99.90
9816;DHT22;4947;44.526;11.360;2023-02-28T14:21:28;7.20;99.90
9816;DHT22;4947;44.526;11.360;2023-02-28T14:32:54;7.30;99.90
9816;DHT22;4947;44.526;11.360;2023-02-28T14:35:43;7.20;99.90
9816;DHT22;4947;44.526;11.360;2023-02-28T14:38:18;7.30;99.90
9816;DHT22;4947;44.526;11.360;2023-02-28T14:40:50;7.30;99.90
9816;DHT22;4947;44.526;11.360;2023-02-28T14:43:21;7.30;99.90
9816;DHT22;4947;44.526;11.360;2023-02-28T14:45:51;7.30;99.90
9816;DHT22;4947;44.526;11.360;2023-02-28T14:48:22;7.30;99.90
9816;DHT22;4947;44.526;11.360;2023-02-28T14:50:52;7.20;99.90
9816;DHT22;4947;44.526;11.360;2023-02-28T14:53:22;7.20;99.90
9816;DHT22;4947;44.526;11.360;2023-02-28T14:55:51;7.10;99.90
9816;DHT22;4947;44.526;11.360;2023-02-28T14:58:24;7.20;99.90
9816;DHT22;4947;44.526;11.360;2023-02-28T15:00:54;7.20;99.90
9816;DHT22;4947;44.526;11.360;2023-02-28T15:03:29;7.20;99.90
9816;DHT22;4947;44.526;11.360;2023-02-28T15:06:02;7.20;99.90
9816;DHT22;4947;44.526;11.360;2023-02-28T15:08:30;7.20;99.90
9816;DHT22;4947;44.526;11.360;2023-02-28T15:11:04;7.30;99.90
9816;DHT22;4947;44.526;11.360;2023-02-28T15:13:39;7.30;99.90
9816;DHT22;4947;44.526;11.360;2023-02-28T15:16:11;7.30;99.90
9816;DHT22;4947;44.526;11.360;2023-02-28T15:18:46;7.20;99.90
9816;DHT22;4947;44.526;11.360;2023-02-28T15:21:17;7.20;99.90
9816;DHT22;4947;44.526;11.360;2023-02-28T15:23:48;7.20;99.90
9816;DHT22;4947;44.526;11.360;2023-02-28T15:26:19;7.20;99.90
9816;DHT22;4947;44.526;11.360;2023-02-28T15:28:52;7.20;99.90
9816;DHT22;4947;44.526;11.360;2023-02-28T15:31:25;7.10;99.90
9816;DHT22;4947;44.526;11.360;2023-02-28T15:33:57;7.10;99.90
9816;DHT22;4947;44.526;11.360;2023-02-28T15:36:30;7.10;99.90
9816;DHT22;4947;44.526;11.360;2023-02-28T15:39:00;7.10;99.90
9816;DHT22;4947;44.526;11.360;2023-02-28T15:41:29;7.10;99.90
9816;DHT22;4947;44.526;11.360;2023-02-28T15:44:16;7.10;99.90
9816;DHT22;4947;44.526;11.360;2023-02-28T15:46:54;7.10;99.90
9816;DHT22;4947;44.526;11.360;2023-02-28T15:49:28;7.00;99.90
9816;DHT22;4947;44.526;11.360;2023-02-28T15:51:59;7.00;99.90
9816;DHT22;4947;44.526;11.360;2023-02-28T15:54:29;7.10;99.90
9816;DHT22;4947;44.526;11.360;2023-02-28T15:57:03;7.10;99.90
9816;DHT22;4947;44.526;11.360;2023-02-28T15:59:36;7.10;99.90
9816;DHT22;4947;44.526;11.360;2023-02-28T16:02:14;7.10;99.90
9816;DHT22;4947;44.526;11.360;2023-02-28T16:07:44;7.00;99.90
9816;DHT22;4947;44.526;11.360;2023-02-28T16:10:13;6.90;99.90
9816;DHT22;4947;44.526;11.360;2023-02-28T16:12:42;6.90;99.90
9816;DHT22;4947;44.526;11.360;2023-02-28T16:15:22;6.90;99.90
9816;DHT22;4947;44.526;11.360;2023-02-28T16:17:50;6.90;99.90
9816;DHT22;4947;44.526;11.360;2023-02-28T16:20:20;6.90;99.90
9816;DHT22;4947;44.526;11.360;2023-02-28T16:22:48;7.00;99.90
9816;DHT22;4947;44.526;11.360;2023-02-28T16:25:17;6.90;99.90
9816;DHT22;4947;44.526;11.360;2023-02-28T16:27:48;7.00;99.90
9816;DHT22;4947;44.526;11.360;2023-02-28T16:30:19;7.00;99.90
9816;DHT22;4947;44.526;11.360;2023-02-28T16:32:48;6.90;99.90
9816;DHT22;4947;44.526;11.360;2023-02-28T16:35:18;6.90;99.90
9816;DHT22;4947;44.526;11.360;2023-02-28T16:37:46;7.00;99.90
9816;DHT22;4947;44.526;11.360;2023-02-28T16:40:15;6.90;99.90
9816;DHT22;4947;44.526;11.360;2023-02-28T16:42:43;6.90;99.90
9816;DHT22;4947;44.526;11.360;2023-02-28T16:45:17;6.90;99.90
9816;DHT22;4947;44.526;11.360;2023-02-28T16:47:45;6.90;99.90
9816;DHT22;4947;44.526;11.360;2023-02-28T16:50:15;6.90;99.90
9816;DHT22;4947;44.526;11.360;2023-02-28T16:52:44;6.90;99.90
9816;DHT22;4947;44.526;11.360;2023-02-28T16:55:13;6.80;99.90
9816;DHT22;4947;44.526;11.360;2023-02-28T16:57:41;6.80;99.90
9816;DHT22;4947;44.526;11.360;2023-02-28T17:00:13;6.80;99.90
9816;DHT22;4947;44.526;11.360;2023-02-28T17:02:40;6.80;99.90
9816;DHT22;4947;44.526;11.360;2023-02-28T17:05:10;6.80;99.90
9816;DHT22;4947;44.526;11.360;2023-02-28T17:07:38;6.70;99.90
9816;DHT22;4947;44.526;11.360;2023-02-28T17:10:14;6.70;99.90